ASE weather

Aspen-Pitkin Co/Sardy Field
Aspen, Colorado, United States

Public forecast

Using degrees Fahrenheit for public forecast. Weather courtesy of forecast.io.

METAR (pilot weather report)

Retrieved 2019/05/21 17:05 UTC (0 seconds ago):

KASE 211705Z 28003KT 6SM -SN SCT007 BKN031 OVC034 02/M01 A2962 RMK AO2 P0000 T00171011

TAF (pilot weather forecast)

Retrieved 2019/05/21 12:42 UTC (4 hours ago):

TAF KASE 211140Z 2112/2212 VRB04KT 1SM -SHSN BR OVC010 TEMPO 2112/2115 4SM -SHSN BR BKN010 OVC020 FM211500 34008KT 4SM -SHSN BR SCT026 OVC030 FM211800 34010G18KT 6SM -SHRASN VCTS BKN020CB BKN035 FM220200 20007KT P6SM VCSH SCT025 BKN030